Airfield :
LOGIN :

Register | Disclaimer

   EN    FR    IT 

 










Legend :    VFR   Marginal VFR   IFR   Intensive IFR   Very Intensive IFR
Visi :
Ceiling :
>= 8 km
>= 3000ft
5 to 8 km
1000 to 3000 ft
1500m to 5 km
500 to 1000 ft
800 to 1500m
200 to 500 ft
< 800m
< 200 ft
Symbols :   Thunderstorms  Fog  Heavy snow  Heavy precipitations  Wind > 20 kt
SIGMETs :     Misc.  Thunderstorms  Icing  Turbulence  Mountain Waves  Volcanic Ashes







- Airport Elevation : 194 ft
- IATA code : IEG


EPZG - Zielona Gora Babimost

CURRENT METAR :
  • 270000Z 22002KT CAVOK 12/11 Q1013

EXPIRED METARs :
  • 262330Z 22001KT CAVOK 13/11 Q1013
  • 262300Z 21002KT CAVOK 14/11 Q1013
  • 262230Z 25002KT CAVOK 15/11 Q1013
  • 262200Z 22001KT CAVOK 14/11 Q1013
  • 262130Z VRB01KT CAVOK 15/11 Q1013

TAF TAF EPZG
Valid from the 27 at 00:00 until the 27 at 09:00 UTC


262330Z 2700/2709 VRB02KT CAVOK
PROB40 2700/2706 1400 BR
No reported NOTAMs for that airfield.



MET'MAP, your aeronautical weather chart ! - Copyright ORBIFLY December 2007 - Disclaimer

ORBIFLY MET'MAP TEAM :

Programming & Development : Alexandra Zaïnal
Concept & Development : Baudouin d'Aumeries
Co-Development & Prog : Marc-Olivier Méhu
Technical & hardware support : Manuel Goepfert

Contact : metmap@orbifly.com




SOURCES & CREDITS :

   NOAA